createdAt,value
2023-04-08T00:00:26.328Z,26.45
2023-04-08T00:02:52.950Z,15.52
2023-04-08T00:05:19.490Z,20.05
2023-04-08T00:07:45.975Z,17.38
2023-04-08T00:10:12.475Z,17.45
2023-04-08T00:12:38.976Z,22.02
2023-04-08T00:15:07.644Z,21.63
2023-04-08T00:17:34.191Z,17.08
2023-04-08T00:20:00.754Z,23.38
2023-04-08T00:22:27.231Z,17.70
2023-04-08T00:24:53.767Z,19.85
2023-04-08T00:27:20.326Z,16.08
2023-04-08T00:29:46.867Z,18.15
2023-04-08T00:32:14.805Z,24.23
2023-04-08T00:34:41.300Z,18.42
2023-04-08T00:37:07.821Z,20.55
2023-04-08T00:39:34.340Z,18.95
2023-04-08T00:42:00.858Z,17.02
2023-04-08T00:44:27.451Z,35.47
2023-04-08T00:46:54.276Z,20.48
2023-04-08T00:49:22.125Z,21.55
2023-04-08T00:51:48.610Z,19.67
2023-04-08T00:54:15.178Z,22.33
2023-04-08T00:56:43.761Z,17.30
2023-04-08T00:59:10.393Z,24.17
2023-04-08T01:01:47.420Z,18.15
2023-04-08T01:04:26.737Z,23.40
2023-04-08T01:06:59.577Z,23.52
2023-04-08T01:09:29.894Z,21.23
2023-04-08T01:11:58.456Z,17.63
2023-04-08T01:14:28.609Z,25.88
2023-04-08T01:16:56.820Z,21.27
2023-04-08T01:19:29.440Z,21.15
2023-04-08T01:22:05.432Z,25.20
2023-04-08T01:24:36.521Z,22.70
2023-04-08T01:27:06.854Z,26.60
2023-04-08T01:29:34.871Z,26.27
2023-04-08T01:32:02.708Z,27.10
2023-04-08T01:34:30.287Z,19.63
2023-04-08T01:36:58.558Z,23.77
2023-04-08T01:39:25.774Z,29.85
2023-04-08T01:41:54.442Z,24.17
2023-04-08T01:44:24.139Z,31.85
2023-04-08T01:46:52.868Z,24.90
2023-04-08T01:49:20.515Z,22.42
2023-04-08T01:51:48.539Z,30.85
2023-04-08T01:54:15.164Z,25.80
2023-04-08T01:56:42.449Z,25.48
2023-04-08T01:59:11.663Z,28.92
2023-04-08T02:01:41.890Z,25.65
2023-04-08T02:04:08.529Z,29.85
2023-04-08T02:06:35.874Z,29.40
2023-04-08T02:09:02.391Z,25.38
2023-04-08T02:11:28.907Z,28.08
2023-04-08T02:13:55.828Z,43.20
2023-04-08T02:16:24.132Z,33.70
2023-04-08T02:18:58.288Z,39.17
2023-04-08T02:21:31.722Z,30.70
2023-04-08T02:24:00.157Z,39.45
2023-04-08T02:26:27.692Z,37.35
2023-04-08T02:28:56.424Z,35.03
2023-04-08T02:31:24.512Z,29.95
2023-04-08T02:33:52.742Z,29.27
2023-04-08T02:36:19.586Z,34.65
2023-04-08T02:38:48.320Z,34.85
2023-04-08T02:41:15.048Z,32.38
2023-04-08T02:43:41.622Z,29.88
2023-04-08T02:46:09.187Z,28.02
2023-04-08T02:48:35.715Z,33.20
2023-04-08T02:51:03.806Z,38.47
2023-04-08T02:53:30.283Z,33.25
2023-04-08T02:55:56.857Z,31.15
2023-04-08T02:58:23.348Z,34.45
2023-04-08T03:00:49.905Z,35.78
2023-04-08T03:03:16.545Z,34.92
2023-04-08T03:05:43.141Z,35.15
2023-04-08T03:08:10.998Z,34.67
2023-04-08T03:10:37.533Z,33.80
2023-04-08T03:13:04.048Z,29.38
2023-04-08T03:15:30.539Z,31.20
2023-04-08T03:17:57.045Z,40.35
2023-04-08T03:20:23.590Z,38.50
2023-04-08T03:22:50.137Z,37.97
2023-04-08T03:25:18.198Z,35.97
2023-04-08T03:27:44.786Z,39.53
2023-04-08T03:30:11.562Z,36.50
2023-04-08T03:32:38.254Z,34.78
2023-04-08T03:35:05.706Z,41.35
2023-04-08T03:37:32.527Z,37.00
2023-04-08T03:39:59.031Z,40.90
2023-04-08T03:42:27.030Z,45.35
2023-04-08T03:44:53.509Z,43.53
2023-04-08T03:47:20.037Z,36.58
2023-04-08T03:49:46.496Z,47.05
2023-04-08T03:52:13.014Z,38.92
2023-04-08T03:54:39.485Z,41.03
2023-04-08T03:57:05.961Z,43.45
2023-04-08T03:59:33.791Z,38.22
2023-04-08T04:02:00.316Z,44.58
2023-04-08T04:04:26.911Z,45.47
2023-04-08T04:06:53.561Z,45.08
2023-04-08T04:09:20.069Z,41.20
2023-04-08T04:11:46.623Z,43.22
2023-04-08T04:14:13.161Z,53.72
2023-04-08T04:16:40.990Z,37.97
2023-04-08T04:19:07.474Z,48.78
2023-04-08T04:21:33.973Z,51.33
2023-04-08T04:24:00.499Z,44.28
2023-04-08T04:26:27.044Z,48.08
2023-04-08T04:28:53.542Z,50.67
2023-04-08T04:31:20.845Z,51.75
2023-04-08T04:33:49.209Z,56.60
2023-04-08T04:36:15.885Z,48.08
2023-04-08T04:38:42.391Z,58.60
2023-04-08T04:41:08.889Z,62.13
2023-04-08T04:43:35.523Z,58.00
2023-04-08T04:46:02.115Z,59.67
2023-04-08T04:48:28.588Z,58.22
2023-04-08T04:50:56.694Z,60.58
2023-04-08T04:53:23.196Z,61.85
2023-04-08T04:55:50.218Z,60.05
2023-04-08T04:58:17.014Z,75.40
2023-04-08T05:00:43.515Z,73.72
2023-04-08T05:03:10.265Z,73.93
2023-04-08T05:05:36.920Z,67.57
2023-04-08T05:08:05.209Z,64.72
2023-04-08T05:10:31.756Z,65.13
2023-04-08T05:12:58.276Z,63.60
2023-04-08T05:15:24.838Z,61.28
2023-04-08T05:17:51.401Z,70.72
2023-04-08T05:20:18.108Z,69.70
2023-04-08T05:22:44.575Z,59.35
2023-04-08T05:25:12.539Z,58.97
2023-04-08T05:27:39.041Z,48.72
2023-04-08T05:30:06.948Z,59.08
2023-04-08T05:32:33.505Z,56.13
2023-04-08T05:35:02.383Z,45.15
2023-04-08T05:37:28.958Z,48.88
2023-04-08T05:39:55.404Z,46.97
2023-04-08T05:42:23.235Z,48.67
2023-04-08T05:44:49.726Z,49.67
2023-04-08T05:47:16.231Z,52.60
2023-04-08T05:49:42.793Z,60.80
2023-04-08T05:52:09.322Z,55.25
2023-04-08T05:54:35.804Z,58.08
2023-04-08T05:57:02.312Z,54.70
2023-04-08T05:59:30.176Z,53.95
2023-04-08T06:01:56.879Z,55.85
2023-04-08T06:04:23.712Z,72.03
2023-04-08T06:06:50.412Z,57.17
2023-04-08T06:09:16.922Z,49.28
2023-04-08T06:11:43.478Z,42.17
2023-04-08T06:14:10.013Z,35.47
2023-04-08T06:16:37.914Z,59.17
2023-04-08T06:19:04.426Z,64.82
2023-04-08T06:21:30.974Z,59.13
2023-04-08T06:23:57.514Z,38.90
2023-04-08T06:26:24.041Z,33.30
2023-04-08T06:28:50.756Z,31.02
2023-04-08T06:31:17.429Z,41.65
2023-04-08T06:33:45.276Z,38.63
2023-04-08T06:36:11.892Z,29.10
2023-04-08T06:38:38.530Z,30.70
2023-04-08T06:41:05.545Z,28.77
2023-04-08T06:43:32.536Z,28.20
2023-04-08T06:45:59.456Z,31.45
2023-04-08T06:48:26.332Z,26.38
2023-04-08T06:50:54.731Z,27.33
2023-04-08T06:53:22.590Z,25.35
2023-04-08T06:55:49.059Z,32.13
2023-04-08T06:58:15.560Z,23.77
2023-04-08T07:00:42.380Z,25.90
2023-04-08T07:03:08.988Z,27.95
2023-04-08T07:05:36.169Z,28.40
2023-04-08T07:08:04.152Z,26.50
2023-04-08T07:10:30.724Z,30.13
2023-04-08T07:12:57.254Z,30.40
2023-04-08T07:15:23.879Z,33.85
2023-04-08T07:17:50.409Z,26.92
2023-04-08T07:20:17.052Z,28.65
2023-04-08T07:22:43.588Z,25.33
2023-04-08T07:25:11.567Z,31.20
2023-04-08T07:27:38.059Z,26.88
2023-04-08T07:30:05.738Z,25.90
2023-04-08T07:32:32.837Z,23.90
2023-04-08T07:34:59.694Z,24.88
2023-04-08T07:37:26.233Z,27.23
2023-04-08T07:39:52.746Z,24.98
2023-04-08T07:42:20.805Z,22.38
2023-04-08T07:44:47.321Z,22.25
2023-04-08T07:47:13.882Z,24.70
2023-04-08T07:49:40.406Z,26.63
2023-04-08T07:52:06.995Z,26.35
2023-04-08T07:54:33.976Z,26.40
2023-04-08T07:57:00.618Z,24.08
2023-04-08T07:59:29.090Z,25.73
2023-04-08T08:01:55.650Z,25.63
2023-04-08T08:04:22.406Z,26.60
2023-04-08T08:06:49.050Z,25.48
2023-04-08T08:09:15.566Z,28.38
2023-04-08T08:11:42.042Z,25.17
2023-04-08T08:14:08.558Z,25.98
2023-04-08T08:16:36.638Z,25.58
2023-04-08T08:19:03.256Z,23.35
2023-04-08T08:21:29.735Z,25.48
2023-04-08T08:23:56.226Z,25.52
2023-04-08T08:26:22.817Z,29.08
2023-04-08T08:28:49.284Z,26.60
2023-04-08T08:31:15.780Z,32.47
2023-04-08T08:33:43.630Z,33.75
2023-04-08T08:36:10.164Z,33.13
2023-04-08T08:38:36.784Z,47.80
2023-04-08T08:41:03.386Z,38.67
2023-04-08T08:43:30.221Z,43.70
2023-04-08T08:45:56.756Z,32.20
2023-04-08T08:48:23.605Z,32.95
2023-04-08T08:50:51.685Z,37.38
2023-04-08T08:53:18.310Z,32.67
2023-04-08T08:56:13.435Z,33.97
2023-04-08T08:58:31.444Z,35.08
2023-04-08T09:00:57.972Z,35.28
2023-04-08T09:03:26.508Z,35.95
2023-04-08T09:05:56.505Z,35.90
2023-04-08T09:08:23.905Z,35.35
2023-04-08T09:10:50.450Z,37.45
2023-04-08T09:13:16.991Z,34.15
2023-04-08T09:16:02.101Z,34.22
2023-04-08T09:18:28.645Z,33.15
2023-04-08T09:20:56.519Z,32.72
2023-04-08T09:23:22.987Z,34.10
2023-04-08T09:25:49.570Z,35.60
2023-04-08T09:28:19.862Z,33.20
2023-04-08T09:30:46.433Z,36.47
2023-04-08T09:33:12.978Z,35.67
2023-04-08T09:35:39.586Z,35.35
2023-04-08T09:38:07.462Z,31.27
2023-04-08T09:40:35.068Z,34.42
2023-04-08T09:43:04.773Z,31.08
2023-04-08T09:45:33.829Z,36.03
2023-04-08T09:48:16.406Z,41.20
2023-04-08T09:50:47.360Z,32.83
2023-04-08T09:53:21.010Z,29.27
2023-04-08T09:55:53.285Z,28.15
2023-04-08T09:58:25.351Z,29.55
2023-04-08T10:00:53.967Z,27.50
2023-04-08T10:03:27.826Z,30.20
2023-04-08T10:05:55.269Z,26.70
2023-04-08T10:08:24.541Z,30.08
2023-04-08T10:10:51.305Z,24.45
2023-04-08T10:13:18.354Z,43.88
2023-04-08T10:15:44.922Z,26.88
2023-04-08T10:18:30.809Z,26.10
2023-04-08T10:20:57.271Z,27.40
2023-04-08T10:23:55.143Z,39.28
2023-04-08T10:26:32.610Z,30.17
2023-04-08T10:29:32.676Z,27.60
2023-04-08T10:31:59.543Z,26.80
2023-04-08T10:34:26.814Z,23.60
2023-04-08T10:36:54.933Z,27.77
2023-04-08T10:39:22.853Z,26.08
2023-04-08T10:41:50.511Z,25.98
2023-04-08T10:44:17.761Z,26.27
2023-04-08T10:46:44.509Z,24.42
2023-04-08T10:49:10.997Z,25.20
2023-04-08T10:51:38.364Z,26.25
2023-04-08T10:54:08.522Z,24.58
2023-04-08T10:56:37.201Z,24.83
2023-04-08T10:59:04.922Z,25.00
2023-04-08T11:01:38.492Z,30.70
2023-04-08T11:06:36.801Z,29.75
2023-04-08T11:09:03.711Z,29.98
2023-04-08T11:11:30.747Z,27.92
2023-04-08T11:13:58.983Z,31.70
2023-04-08T11:16:26.744Z,27.13
2023-04-08T11:18:53.608Z,29.23
2023-04-08T11:21:20.208Z,30.67
2023-04-08T11:23:49.963Z,29.70
2023-04-08T11:26:17.109Z,28.33
2023-04-08T11:28:43.916Z,30.73
2023-04-08T11:31:12.741Z,26.65
2023-04-08T11:33:45.425Z,28.77
2023-04-08T11:36:12.776Z,25.48
2023-04-08T11:38:40.015Z,27.02
2023-04-08T11:41:06.532Z,28.70
2023-04-08T11:43:33.226Z,26.25
2023-04-08T11:45:59.778Z,30.38
2023-04-08T11:48:27.762Z,27.20
2023-04-08T11:51:03.127Z,28.88
2023-04-08T11:53:29.790Z,24.80
2023-04-08T11:55:56.321Z,23.27
2023-04-08T11:58:22.889Z,26.05
2023-04-08T12:00:49.351Z,22.77
2023-04-08T12:03:15.906Z,20.63
2023-04-08T12:05:43.807Z,22.70
2023-04-08T12:08:10.320Z,23.50
2023-04-08T12:10:36.812Z,25.75
2023-04-08T12:13:03.299Z,24.70
2023-04-08T12:15:30.063Z,25.38
2023-04-08T12:17:56.639Z,25.05
2023-04-08T12:20:23.176Z,22.50
2023-04-08T12:22:51.036Z,21.25
2023-04-08T12:25:17.572Z,25.65
2023-04-08T12:27:44.089Z,21.83
2023-04-08T12:30:11.711Z,23.63
2023-04-08T12:32:38.382Z,23.20
2023-04-08T12:35:05.289Z,23.48
2023-04-08T12:37:31.841Z,37.17
2023-04-08T12:39:59.706Z,24.55
2023-04-08T12:42:26.201Z,18.17
2023-04-08T12:44:52.687Z,24.52
2023-04-08T12:47:19.248Z,21.02
2023-04-08T12:49:49.786Z,17.98
2023-04-08T12:52:16.917Z,19.95
2023-04-08T12:54:43.385Z,19.90
2023-04-08T12:57:11.243Z,18.00
2023-04-08T12:59:37.770Z,18.55
2023-04-08T13:02:04.332Z,15.68
2023-04-08T13:04:30.991Z,21.92
2023-04-08T13:06:57.432Z,16.23
2023-04-08T13:09:24.079Z,20.60
2023-04-08T13:11:50.594Z,17.60
2023-04-08T13:14:18.413Z,16.80
2023-04-08T13:16:44.982Z,17.08
2023-04-08T13:19:11.495Z,18.13
2023-04-08T13:21:37.968Z,21.25
2023-04-08T13:24:04.986Z,22.38
2023-04-08T13:26:31.481Z,18.77
2023-04-08T13:28:58.429Z,19.83
2023-04-08T13:31:26.520Z,20.55
2023-04-08T13:33:56.068Z,20.02
2023-04-08T13:36:24.546Z,17.67
2023-04-08T13:38:51.175Z,20.35
2023-04-08T13:41:17.863Z,16.08
2023-04-08T13:43:44.372Z,14.80
2023-04-08T13:46:10.881Z,17.10
2023-04-08T13:48:39.036Z,16.85
2023-04-08T13:51:05.582Z,18.98
2023-04-08T13:53:32.080Z,18.23
2023-04-08T13:55:58.590Z,16.52
2023-04-08T13:58:25.177Z,16.85
2023-04-08T14:00:52.077Z,21.20
2023-04-08T14:03:19.365Z,16.17
2023-04-08T14:05:47.266Z,17.58
2023-04-08T14:08:13.972Z,14.10
2023-04-08T14:10:40.600Z,17.23
2023-04-08T14:13:07.387Z,20.13
2023-04-08T14:15:33.876Z,19.58
2023-04-08T14:18:00.433Z,15.40
2023-04-08T14:20:27.119Z,18.02
2023-04-08T14:22:54.912Z,16.88
2023-04-08T14:25:21.470Z,16.48
2023-04-08T14:27:57.383Z,20.15
2023-04-08T14:30:25.288Z,13.65
2023-04-08T14:32:51.818Z,13.68
2023-04-08T14:35:18.316Z,16.88
2023-04-08T14:37:44.845Z,19.55
2023-04-08T14:40:13.122Z,13.73
2023-04-08T14:42:39.756Z,18.10
2023-04-08T14:45:07.260Z,18.88
2023-04-08T14:47:33.842Z,15.02
2023-04-08T14:50:00.351Z,13.82
2023-04-08T14:52:26.853Z,14.90
2023-04-08T14:54:53.373Z,15.55
2023-04-08T14:57:21.184Z,10.70
2023-04-08T14:59:47.895Z,10.38
2023-04-08T15:02:14.564Z,17.13
2023-04-08T15:04:41.204Z,17.35
2023-04-08T15:07:07.654Z,14.75
2023-04-08T15:09:34.222Z,15.20
2023-04-08T15:12:00.848Z,14.27
2023-04-08T15:14:28.658Z,17.90
2023-04-08T15:16:55.124Z,15.15
2023-04-08T15:19:21.606Z,10.98
2023-04-08T15:21:48.130Z,11.65
2023-04-08T15:24:14.655Z,10.98
2023-04-08T15:26:41.318Z,11.30
2023-04-08T15:29:07.911Z,13.95
2023-04-08T15:31:36.012Z,10.95
2023-04-08T15:34:02.873Z,10.90
2023-04-08T15:36:29.872Z,10.88
2023-04-08T15:38:56.504Z,10.05
2023-04-08T15:41:23.009Z,11.20
2023-04-08T15:43:49.510Z,13.48
2023-04-08T15:46:18.055Z,15.40
2023-04-08T15:48:46.142Z,13.95
2023-04-08T15:51:12.700Z,17.80
2023-04-08T15:53:39.277Z,13.70
2023-04-08T15:56:06.224Z,10.50
2023-04-08T15:58:32.761Z,10.90
2023-04-08T16:00:59.257Z,12.18
2023-04-08T16:03:25.853Z,10.73
2023-04-08T16:05:53.754Z,10.48
2023-04-08T16:08:20.247Z,13.43
2023-04-08T16:10:46.769Z,11.35
2023-04-08T16:13:13.341Z,14.48
2023-04-08T16:15:39.849Z,9.98
2023-04-08T16:18:06.573Z,10.60
2023-04-08T16:20:33.333Z,14.02
2023-04-08T16:23:01.176Z,11.57
2023-04-08T16:25:28.420Z,8.32
2023-04-08T16:27:55.065Z,9.38
2023-04-08T16:30:21.599Z,11.88
2023-04-08T16:32:48.110Z,9.93
2023-04-08T16:35:14.806Z,11.55
2023-04-08T16:37:41.265Z,11.45
2023-04-08T16:40:10.437Z,11.73
2023-04-08T16:42:36.954Z,10.23
2023-04-08T16:45:04.227Z,15.82
2023-04-08T16:47:30.767Z,11.90
2023-04-08T16:49:57.277Z,9.63
2023-04-08T16:52:23.788Z,11.00
2023-04-08T16:54:50.294Z,10.52
2023-04-08T16:57:18.151Z,10.98
2023-04-08T16:59:44.619Z,11.90
2023-04-08T17:02:11.303Z,11.48
2023-04-08T17:04:37.875Z,10.25
2023-04-08T17:07:04.351Z,11.23
2023-04-08T17:09:30.895Z,11.95
2023-04-08T17:11:57.407Z,15.02
2023-04-08T17:14:25.323Z,9.65
2023-04-08T17:16:51.930Z,14.93
2023-04-08T17:19:18.486Z,14.07
2023-04-08T17:21:45.044Z,21.55
2023-04-08T17:24:11.596Z,12.23
2023-04-08T17:26:40.602Z,16.35
2023-04-08T17:29:07.143Z,12.95
2023-04-08T17:31:35.055Z,13.70
2023-04-08T17:34:01.879Z,11.75
2023-04-08T17:36:30.418Z,13.48
2023-04-08T17:38:57.217Z,13.90
2023-04-08T17:41:37.954Z,14.48
2023-04-08T17:44:06.012Z,13.25
2023-04-08T17:46:32.575Z,15.35
2023-04-08T17:49:00.416Z,15.38
2023-04-08T17:51:26.959Z,13.80
2023-04-08T17:53:53.476Z,11.82
2023-04-08T17:56:19.961Z,14.13
2023-04-08T17:58:46.444Z,13.10
2023-04-08T18:01:13.001Z,14.88
2023-04-08T18:03:39.657Z,14.82
2023-04-08T18:06:08.564Z,13.82
2023-04-08T18:08:35.164Z,13.32
2023-04-08T18:11:04.402Z,14.23
2023-04-08T18:13:30.978Z,15.00
2023-04-08T18:15:57.532Z,12.35
2023-04-08T18:18:24.183Z,14.60
2023-04-08T18:20:50.712Z,15.70
2023-04-08T18:23:18.566Z,13.20
2023-04-08T18:25:46.615Z,14.60
2023-04-08T18:28:13.197Z,13.77
2023-04-08T18:30:39.751Z,14.35
2023-04-08T18:33:06.262Z,14.05
2023-04-08T18:35:32.850Z,14.18
2023-04-08T18:37:59.393Z,12.18
2023-04-08T18:40:27.347Z,13.02
2023-04-08T18:42:53.866Z,10.98
2023-04-08T18:45:20.388Z,12.15
2023-04-08T18:47:46.913Z,14.05
2023-04-08T18:50:13.430Z,13.65
2023-04-08T18:52:39.920Z,14.15
2023-04-08T18:55:06.608Z,12.40
2023-04-08T18:57:34.413Z,13.48
2023-04-08T19:00:00.929Z,13.43
2023-04-08T19:02:27.485Z,15.32
2023-04-08T19:04:54.309Z,14.43
2023-04-08T19:07:20.838Z,14.27
2023-04-08T19:09:47.383Z,13.68
2023-04-08T19:12:13.868Z,14.60
2023-04-08T19:14:41.712Z,12.38
2023-04-08T19:17:08.209Z,15.23
2023-04-08T19:19:35.914Z,14.90
2023-04-08T19:22:02.379Z,18.83
2023-04-08T19:24:28.922Z,15.75
2023-04-08T19:26:55.383Z,14.15
2023-04-08T19:29:22.006Z,16.67
2023-04-08T19:31:49.911Z,15.30
2023-04-08T19:34:16.429Z,17.73
2023-04-08T19:36:42.937Z,14.25
2023-04-08T19:39:09.466Z,15.05
2023-04-08T19:41:36.077Z,14.23
2023-04-08T19:44:02.580Z,14.07
2023-04-08T19:46:29.154Z,15.30
2023-04-08T19:48:56.979Z,16.33
2023-04-08T19:51:23.594Z,17.63
2023-04-08T19:53:52.954Z,15.50
2023-04-08T19:56:19.647Z,18.38
2023-04-08T19:58:46.272Z,16.25
2023-04-08T20:01:12.730Z,14.15
2023-04-08T20:03:39.282Z,16.67
2023-04-08T20:06:07.370Z,14.98
2023-04-08T20:08:33.817Z,14.98
2023-04-08T20:11:01.500Z,15.75
2023-04-08T20:13:28.900Z,16.35
2023-04-08T20:15:55.421Z,15.95
2023-04-08T20:18:22.022Z,18.02
2023-04-08T20:20:48.545Z,14.55
2023-04-08T20:23:16.434Z,18.63
2023-04-08T20:25:43.123Z,17.05
2023-04-08T20:28:09.669Z,19.55
2023-04-08T20:30:36.156Z,24.63
2023-04-08T20:33:02.681Z,23.60
2023-04-08T20:35:29.308Z,25.00
2023-04-08T20:37:55.839Z,26.30
2023-04-08T20:40:23.674Z,27.42
2023-04-08T20:42:50.186Z,25.83
2023-04-08T20:45:16.754Z,30.17
2023-04-08T20:47:43.286Z,33.22
2023-04-08T20:50:10.584Z,35.53
2023-04-08T20:52:37.089Z,34.42
2023-04-08T20:55:04.056Z,33.08
2023-04-08T20:57:31.882Z,29.20
2023-04-08T20:59:58.462Z,28.58
2023-04-08T21:02:25.122Z,24.80
2023-04-08T21:04:51.714Z,26.83
2023-04-08T21:07:18.215Z,24.98
2023-04-08T21:09:46.993Z,23.02
2023-04-08T21:12:13.539Z,23.83
2023-04-08T21:14:41.375Z,23.30
2023-04-08T21:17:07.853Z,26.52
2023-04-08T21:19:34.320Z,26.17
2023-04-08T21:22:00.837Z,25.85
2023-04-08T21:24:27.834Z,28.10
2023-04-08T21:26:54.319Z,31.98
2023-04-08T21:29:20.807Z,32.33
2023-04-08T21:31:48.641Z,30.35
2023-04-08T21:34:15.198Z,34.67
2023-04-08T21:36:41.734Z,35.88
2023-04-08T21:39:08.210Z,37.55
2023-04-08T21:41:34.696Z,38.00
2023-04-08T21:44:01.219Z,41.95
2023-04-08T21:46:27.728Z,36.42
2023-04-08T21:48:55.572Z,34.60
2023-04-08T21:51:22.087Z,32.40
2023-04-08T21:53:50.182Z,31.88
2023-04-08T21:56:16.888Z,37.53
2023-04-08T21:58:43.348Z,36.40
2023-04-08T22:01:09.851Z,40.20
2023-04-08T22:03:36.511Z,44.00
2023-04-08T22:06:07.346Z,47.67
2023-04-08T22:08:33.843Z,52.28
2023-04-08T22:11:00.342Z,56.95
2023-04-08T22:13:26.889Z,58.05
2023-04-08T22:15:53.415Z,54.83
2023-04-08T22:18:19.872Z,58.72
2023-04-08T22:20:46.391Z,57.08
2023-04-08T22:23:14.221Z,57.22
2023-04-08T22:25:40.695Z,55.63
2023-04-08T22:28:07.211Z,53.20
2023-04-08T22:30:33.799Z,55.65
2023-04-08T22:33:00.342Z,56.15
2023-04-08T22:35:26.850Z,56.53
2023-04-08T22:37:53.350Z,59.05
2023-04-08T22:40:21.410Z,60.72
2023-04-08T22:42:47.936Z,56.35
2023-04-08T22:45:14.441Z,60.63
2023-04-08T22:47:40.994Z,58.30
2023-04-08T22:50:08.149Z,57.28
2023-04-08T22:52:34.822Z,56.15
2023-04-08T22:55:01.381Z,54.70
2023-04-08T22:57:29.284Z,57.25
2023-04-08T22:59:55.786Z,56.47
2023-04-08T23:02:22.401Z,60.00
2023-04-08T23:04:53.658Z,56.85
2023-04-08T23:07:20.192Z,59.00
2023-04-08T23:09:46.687Z,62.22
2023-04-08T23:12:13.225Z,62.95
2023-04-08T23:14:41.009Z,59.50
2023-04-08T23:17:07.476Z,60.35
2023-04-08T23:19:33.975Z,61.33
2023-04-08T23:22:00.430Z,67.03
2023-04-08T23:24:26.964Z,63.33
2023-04-08T23:26:53.447Z,63.97
2023-04-08T23:29:19.904Z,61.03
2023-04-08T23:31:47.732Z,60.72
2023-04-08T23:34:14.220Z,60.20
2023-04-08T23:36:40.734Z,60.20
2023-04-08T23:39:07.219Z,58.22
2023-04-08T23:41:33.720Z,63.75
2023-04-08T23:44:00.246Z,60.72
2023-04-08T23:46:26.788Z,60.70
2023-04-08T23:48:54.769Z,59.97
2023-04-08T23:51:21.460Z,60.40
2023-04-08T23:53:47.938Z,61.00
2023-04-08T23:56:14.427Z,62.35
2023-04-08T23:58:40.922Z,60.33
